sensor_id;sensor_type;location;lat;lon;timestamp;temperature;humidity
11188;DHT22;5650;52.700;7.306;2022-09-09T00:00:21;15.00;99.90
11188;DHT22;5650;52.700;7.306;2022-09-09T00:02:57;14.90;99.90
11188;DHT22;5650;52.700;7.306;2022-09-09T00:05:31;14.80;99.90
11188;DHT22;5650;52.700;7.306;2022-09-09T00:08:02;14.80;99.90
11188;DHT22;5650;52.700;7.306;2022-09-09T00:10:37;14.80;99.90
11188;DHT22;5650;52.700;7.306;2022-09-09T00:13:14;14.70;99.90
11188;DHT22;5650;52.700;7.306;2022-09-09T00:15:54;14.70;99.90
11188;DHT22;5650;52.700;7.306;2022-09-09T00:18:27;14.70;99.90
11188;DHT22;5650;52.700;7.306;2022-09-09T00:21:00;14.70;99.90
11188;DHT22;5650;52.700;7.306;2022-09-09T00:23:34;14.70;99.90
11188;DHT22;5650;52.700;7.306;2022-09-09T00:26:14;14.60;99.90
11188;DHT22;5650;52.700;7.306;2022-09-09T00:28:48;14.60;99.90
11188;DHT22;5650;52.700;7.306;2022-09-09T00:31:23;14.60;99.90
11188;DHT22;5650;52.700;7.306;2022-09-09T00:33:51;14.60;99.90
11188;DHT22;5650;52.700;7.306;2022-09-09T00:36:25;14.50;99.90
11188;DHT22;5650;52.700;7.306;2022-09-09T00:38:56;14.50;99.90
11188;DHT22;5650;52.700;7.306;2022-09-09T00:41:44;14.50;99.90
11188;DHT22;5650;52.700;7.306;2022-09-09T00:44:23;14.40;99.90
11188;DHT22;5650;52.700;7.306;2022-09-09T00:47:09;14.40;99.90
11188;DHT22;5650;52.700;7.306;2022-09-09T00:49:57;14.40;99.90
11188;DHT22;5650;52.700;7.306;2022-09-09T00:52:40;14.40;99.90
11188;DHT22;5650;52.700;7.306;2022-09-09T00:55:17;14.50;99.90
11188;DHT22;5650;52.700;7.306;2022-09-09T00:57:49;14.50;99.90
11188;DHT22;5650;52.700;7.306;2022-09-09T01:00:29;14.50;99.90
11188;DHT22;5650;52.700;7.306;2022-09-09T01:03:07;14.60;99.90
11188;DHT22;5650;52.700;7.306;2022-09-09T01:05:44;14.60;99.90
11188;DHT22;5650;52.700;7.306;2022-09-09T01:08:23;14.60;99.90
11188;DHT22;5650;52.700;7.306;2022-09-09T01:10:56;14.60;99.90
11188;DHT22;5650;52.700;7.306;2022-09-09T01:13:29;14.70;99.90
11188;DHT22;5650;52.700;7.306;2022-09-09T01:15:57;14.70;99.90
11188;DHT22;5650;52.700;7.306;2022-09-09T01:18:30;14.80;99.90
11188;DHT22;5650;52.700;7.306;2022-09-09T01:21:09;14.80;99.90
11188;DHT22;5650;52.700;7.306;2022-09-09T01:24:08;14.80;99.90
11188;DHT22;5650;52.700;7.306;2022-09-09T01:26:46;14.80;99.90
11188;DHT22;5650;52.700;7.306;2022-09-09T01:29:14;14.80;99.90
11188;DHT22;5650;52.700;7.306;2022-09-09T01:31:53;14.80;99.90
11188;DHT22;5650;52.700;7.306;2022-09-09T01:34:23;14.80;99.90
11188;DHT22;5650;52.700;7.306;2022-09-09T01:36:59;14.90;99.90
11188;DHT22;5650;52.700;7.306;2022-09-09T01:39:30;14.80;99.90
11188;DHT22;5650;52.700;7.306;2022-09-09T01:42:00;14.80;99.90
11188;DHT22;5650;52.700;7.306;2022-09-09T01:44:28;14.80;99.90
11188;DHT22;5650;52.700;7.306;2022-09-09T01:46:56;14.80;99.90
11188;DHT22;5650;52.700;7.306;2022-09-09T01:49:26;14.80;99.90
11188;DHT22;5650;52.700;7.306;2022-09-09T01:51:55;14.80;99.90
11188;DHT22;5650;52.700;7.306;2022-09-09T01:54:29;14.80;99.90
11188;DHT22;5650;52.700;7.306;2022-09-09T01:57:08;14.70;99.90
11188;DHT22;5650;52.700;7.306;2022-09-09T02:00:04;14.70;99.90
11188;DHT22;5650;52.700;7.306;2022-09-09T02:02:46;14.70;99.90
11188;DHT22;5650;52.700;7.306;2022-09-09T02:05:25;14.70;99.90
11188;DHT22;5650;52.700;7.306;2022-09-09T02:08:00;14.60;99.90
11188;DHT22;5650;52.700;7.306;2022-09-09T02:10:33;14.60;99.90
11188;DHT22;5650;52.700;7.306;2022-09-09T02:13:09;14.50;99.90
11188;DHT22;5650;52.700;7.306;2022-09-09T02:15:48;14.50;99.90
11188;DHT22;5650;52.700;7.306;2022-09-09T02:18:22;14.50;99.90
11188;DHT22;5650;52.700;7.306;2022-09-09T02:20:54;14.40;99.90
11188;DHT22;5650;52.700;7.306;2022-09-09T02:23:26;14.40;99.90
11188;DHT22;5650;52.700;7.306;2022-09-09T02:25:56;14.30;99.90
11188;DHT22;5650;52.700;7.306;2022-09-09T02:28:35;14.30;99.90
11188;DHT22;5650;52.700;7.306;2022-09-09T02:31:03;14.30;99.90
11188;DHT22;5650;52.700;7.306;2022-09-09T02:33:33;14.30;99.90
11188;DHT22;5650;52.700;7.306;2022-09-09T02:36:03;14.30;99.90
11188;DHT22;5650;52.700;7.306;2022-09-09T02:38:35;14.20;99.90
11188;DHT22;5650;52.700;7.306;2022-09-09T02:41:05;14.20;99.90
11188;DHT22;5650;52.700;7.306;2022-09-09T02:43:36;14.20;99.90
11188;DHT22;5650;52.700;7.306;2022-09-09T02:46:11;14.20;99.90
11188;DHT22;5650;52.700;7.306;2022-09-09T02:48:47;14.20;99.90
11188;DHT22;5650;52.700;7.306;2022-09-09T02:51:32;14.20;99.90
11188;DHT22;5650;52.700;7.306;2022-09-09T02:54:10;14.10;99.90
11188;DHT22;5650;52.700;7.306;2022-09-09T02:56:41;14.10;99.90
11188;DHT22;5650;52.700;7.306;2022-09-09T02:59:12;14.10;99.90
11188;DHT22;5650;52.700;7.306;2022-09-09T03:01:39;14.00;99.90
11188;DHT22;5650;52.700;7.306;2022-09-09T03:04:12;14.10;99.90
11188;DHT22;5650;52.700;7.306;2022-09-09T03:06:46;14.10;99.90
11188;DHT22;5650;52.700;7.306;2022-09-09T03:09:16;14.10;99.90
11188;DHT22;5650;52.700;7.306;2022-09-09T03:11:43;14.10;99.90
11188;DHT22;5650;52.700;7.306;2022-09-09T03:14:12;14.20;99.90
11188;DHT22;5650;52.700;7.306;2022-09-09T03:16:39;14.20;99.90
11188;DHT22;5650;52.700;7.306;2022-09-09T03:19:07;14.20;99.90
11188;DHT22;5650;52.700;7.306;2022-09-09T03:21:35;14.30;99.90
11188;DHT22;5650;52.700;7.306;2022-09-09T03:24:02;14.20;99.90
11188;DHT22;5650;52.700;7.306;2022-09-09T03:26:43;14.30;99.90
11188;DHT22;5650;52.700;7.306;2022-09-09T03:29:12;14.30;99.90
11188;DHT22;5650;52.700;7.306;2022-09-09T03:31:40;14.30;99.90
11188;DHT22;5650;52.700;7.306;2022-09-09T03:34:08;14.30;99.90
11188;DHT22;5650;52.700;7.306;2022-09-09T03:36:35;14.30;99.90
11188;DHT22;5650;52.700;7.306;2022-09-09T03:39:03;14.30;99.90
11188;DHT22;5650;52.700;7.306;2022-09-09T03:41:30;14.40;99.90
11188;DHT22;5650;52.700;7.306;2022-09-09T03:43:57;14.40;99.90
11188;DHT22;5650;52.700;7.306;2022-09-09T03:46:32;14.50;99.90
11188;DHT22;5650;52.700;7.306;2022-09-09T03:48:59;14.50;99.90
11188;DHT22;5650;52.700;7.306;2022-09-09T03:51:27;14.50;99.90
11188;DHT22;5650;52.700;7.306;2022-09-09T03:53:54;14.50;99.90
11188;DHT22;5650;52.700;7.306;2022-09-09T03:56:24;14.50;99.90
11188;DHT22;5650;52.700;7.306;2022-09-09T03:58:51;14.50;99.90
11188;DHT22;5650;52.700;7.306;2022-09-09T04:01:24;14.50;99.90
11188;DHT22;5650;52.700;7.306;2022-09-09T04:03:53;14.60;99.90
11188;DHT22;5650;52.700;7.306;2022-09-09T04:06:24;14.60;99.90
11188;DHT22;5650;52.700;7.306;2022-09-09T04:08:51;14.60;99.90
11188;DHT22;5650;52.700;7.306;2022-09-09T04:11:18;14.60;99.90
11188;DHT22;5650;52.700;7.306;2022-09-09T04:13:46;14.60;99.90
11188;DHT22;5650;52.700;7.306;2022-09-09T04:16:16;14.60;99.90
11188;DHT22;5650;52.700;7.306;2022-09-09T04:18:43;14.60;99.90
11188;DHT22;5650;52.700;7.306;2022-09-09T04:21:14;14.60;99.90
11188;DHT22;5650;52.700;7.306;2022-09-09T04:23:41;14.60;99.90
11188;DHT22;5650;52.700;7.306;2022-09-09T04:26:12;14.60;99.90
11188;DHT22;5650;52.700;7.306;2022-09-09T04:28:39;14.70;99.90
11188;DHT22;5650;52.700;7.306;2022-09-09T04:31:15;14.70;99.90
11188;DHT22;5650;52.700;7.306;2022-09-09T04:33:46;14.70;99.90
11188;DHT22;5650;52.700;7.306;2022-09-09T04:36:14;14.70;99.90
11188;DHT22;5650;52.700;7.306;2022-09-09T04:38:50;14.60;99.90
11188;DHT22;5650;52.700;7.306;2022-09-09T04:41:20;14.60;99.90
11188;DHT22;5650;52.700;7.306;2022-09-09T04:43:48;14.60;99.90
11188;DHT22;5650;52.700;7.306;2022-09-09T04:46:15;14.60;99.90
11188;DHT22;5650;52.700;7.306;2022-09-09T04:48:46;14.60;99.90
11188;DHT22;5650;52.700;7.306;2022-09-09T04:51:15;14.70;99.90
11188;DHT22;5650;52.700;7.306;2022-09-09T04:53:43;14.60;99.90
11188;DHT22;5650;52.700;7.306;2022-09-09T04:56:12;14.60;99.90
11188;DHT22;5650;52.700;7.306;2022-09-09T04:58:43;14.60;99.90
11188;DHT22;5650;52.700;7.306;2022-09-09T05:01:12;14.60;99.90
11188;DHT22;5650;52.700;7.306;2022-09-09T05:03:43;14.60;99.90
11188;DHT22;5650;52.700;7.306;2022-09-09T05:06:23;14.60;99.90
11188;DHT22;5650;52.700;7.306;2022-09-09T05:08:53;14.50;99.90
11188;DHT22;5650;52.700;7.306;2022-09-09T05:11:21;14.50;99.90
11188;DHT22;5650;52.700;7.306;2022-09-09T05:13:52;14.50;99.90
11188;DHT22;5650;52.700;7.306;2022-09-09T05:16:24;14.50;99.90
11188;DHT22;5650;52.700;7.306;2022-09-09T05:18:54;14.50;99.90
11188;DHT22;5650;52.700;7.306;2022-09-09T05:21:25;14.50;99.90
11188;DHT22;5650;52.700;7.306;2022-09-09T05:23:53;14.40;99.90
11188;DHT22;5650;52.700;7.306;2022-09-09T05:26:21;14.40;99.90
11188;DHT22;5650;52.700;7.306;2022-09-09T05:28:49;14.40;99.90
11188;DHT22;5650;52.700;7.306;2022-09-09T05:31:18;14.40;99.90
11188;DHT22;5650;52.700;7.306;2022-09-09T05:33:46;14.30;99.90
11188;DHT22;5650;52.700;7.306;2022-09-09T05:36:16;14.30;99.90
11188;DHT22;5650;52.700;7.306;2022-09-09T05:38:51;14.30;99.90
11188;DHT22;5650;52.700;7.306;2022-09-09T05:41:19;14.30;99.90
11188;DHT22;5650;52.700;7.306;2022-09-09T05:43:48;14.30;99.90
11188;DHT22;5650;52.700;7.306;2022-09-09T05:46:20;14.30;99.90
11188;DHT22;5650;52.700;7.306;2022-09-09T05:48:48;14.40;99.90
11188;DHT22;5650;52.700;7.306;2022-09-09T05:51:21;14.50;99.90
11188;DHT22;5650;52.700;7.306;2022-09-09T05:53:51;14.90;99.90
11188;DHT22;5650;52.700;7.306;2022-09-09T05:56:19;15.70;99.90
11188;DHT22;5650;52.700;7.306;2022-09-09T05:58:50;16.40;99.90
11188;DHT22;5650;52.700;7.306;2022-09-09T06:01:28;17.10;99.90
11188;DHT22;5650;52.700;7.306;2022-09-09T06:04:07;17.70;99.90
11188;DHT22;5650;52.700;7.306;2022-09-09T06:06:38;18.30;99.90
11188;DHT22;5650;52.700;7.306;2022-09-09T06:09:08;18.80;99.90
11188;DHT22;5650;52.700;7.306;2022-09-09T06:11:42;19.30;99.90
11188;DHT22;5650;52.700;7.306;2022-09-09T06:14:12;19.80;99.90
11188;DHT22;5650;52.700;7.306;2022-09-09T06:16:41;20.10;99.90
11188;DHT22;5650;52.700;7.306;2022-09-09T06:19:09;20.50;99.90
11188;DHT22;5650;52.700;7.306;2022-09-09T06:21:37;20.90;99.90
11188;DHT22;5650;52.700;7.306;2022-09-09T06:24:07;21.20;99.90
11188;DHT22;5650;52.700;7.306;2022-09-09T06:26:38;21.50;99.90
11188;DHT22;5650;52.700;7.306;2022-09-09T06:29:06;21.70;99.90
11188;DHT22;5650;52.700;7.306;2022-09-09T06:31:35;21.70;99.90
11188;DHT22;5650;52.700;7.306;2022-09-09T06:34:04;21.80;99.90
11188;DHT22;5650;52.700;7.306;2022-09-09T06:36:38;21.80;99.90
11188;DHT22;5650;52.700;7.306;2022-09-09T06:39:07;21.60;99.90
11188;DHT22;5650;52.700;7.306;2022-09-09T06:41:36;21.40;99.90
11188;DHT22;5650;52.700;7.306;2022-09-09T06:44:06;21.10;99.90
11188;DHT22;5650;52.700;7.306;2022-09-09T06:46:41;20.70;99.90
11188;DHT22;5650;52.700;7.306;2022-09-09T06:49:12;20.70;99.90
11188;DHT22;5650;52.700;7.306;2022-09-09T06:51:42;20.90;99.90
11188;DHT22;5650;52.700;7.306;2022-09-09T06:54:14;21.00;99.90
11188;DHT22;5650;52.700;7.306;2022-09-09T06:56:44;20.90;99.90
11188;DHT22;5650;52.700;7.306;2022-09-09T06:59:11;20.60;99.90
11188;DHT22;5650;52.700;7.306;2022-09-09T07:01:40;20.70;99.90
11188;DHT22;5650;52.700;7.306;2022-09-09T07:04:10;20.80;99.90
11188;DHT22;5650;52.700;7.306;2022-09-09T07:06:42;21.00;99.90
11188;DHT22;5650;52.700;7.306;2022-09-09T07:09:12;21.10;99.90
11188;DHT22;5650;52.700;7.306;2022-09-09T07:11:42;21.00;99.90
11188;DHT22;5650;52.700;7.306;2022-09-09T07:14:10;20.80;99.90
11188;DHT22;5650;52.700;7.306;2022-09-09T07:16:40;20.50;99.90
11188;DHT22;5650;52.700;7.306;2022-09-09T07:19:07;20.20;99.90
11188;DHT22;5650;52.700;7.306;2022-09-09T07:21:41;20.00;99.90
11188;DHT22;5650;52.700;7.306;2022-09-09T07:24:08;19.70;99.90
11188;DHT22;5650;52.700;7.306;2022-09-09T07:26:37;19.50;99.90
11188;DHT22;5650;52.700;7.306;2022-09-09T07:29:06;19.40;99.90
11188;DHT22;5650;52.700;7.306;2022-09-09T07:31:38;19.40;99.90
11188;DHT22;5650;52.700;7.306;2022-09-09T07:34:08;19.40;99.90
11188;DHT22;5650;52.700;7.306;2022-09-09T07:36:37;19.50;99.90
11188;DHT22;5650;52.700;7.306;2022-09-09T07:39:06;19.50;99.90
11188;DHT22;5650;52.700;7.306;2022-09-09T07:41:40;19.50;99.90
11188;DHT22;5650;52.700;7.306;2022-09-09T07:44:11;19.50;99.90
11188;DHT22;5650;52.700;7.306;2022-09-09T07:46:40;19.50;99.90
11188;DHT22;5650;52.700;7.306;2022-09-09T07:49:08;19.50;99.90
11188;DHT22;5650;52.700;7.306;2022-09-09T07:51:46;19.50;99.90
11188;DHT22;5650;52.700;7.306;2022-09-09T07:54:16;19.60;99.90
11188;DHT22;5650;52.700;7.306;2022-09-09T07:56:45;19.70;99.90
11188;DHT22;5650;52.700;7.306;2022-09-09T07:59:14;19.90;99.90
11188;DHT22;5650;52.700;7.306;2022-09-09T08:01:43;20.10;99.90
11188;DHT22;5650;52.700;7.306;2022-09-09T08:04:12;20.20;99.90
11188;DHT22;5650;52.700;7.306;2022-09-09T08:06:43;20.20;99.90
11188;DHT22;5650;52.700;7.306;2022-09-09T08:09:12;20.30;99.90
11188;DHT22;5650;52.700;7.306;2022-09-09T08:11:40;20.40;99.90
11188;DHT22;5650;52.700;7.306;2022-09-09T08:14:09;20.40;99.90
11188;DHT22;5650;52.700;7.306;2022-09-09T08:16:40;20.40;99.90
11188;DHT22;5650;52.700;7.306;2022-09-09T08:19:10;20.60;99.90
11188;DHT22;5650;52.700;7.306;2022-09-09T08:21:39;20.90;99.90
11188;DHT22;5650;52.700;7.306;2022-09-09T08:24:10;21.30;99.90
11188;DHT22;5650;52.700;7.306;2022-09-09T08:26:45;21.50;99.90
11188;DHT22;5650;52.700;7.306;2022-09-09T08:29:13;21.70;99.90
11188;DHT22;5650;52.700;7.306;2022-09-09T08:31:43;21.70;99.90
11188;DHT22;5650;52.700;7.306;2022-09-09T08:34:11;21.70;99.90
11188;DHT22;5650;52.700;7.306;2022-09-09T08:36:43;21.80;99.90
11188;DHT22;5650;52.700;7.306;2022-09-09T08:39:12;21.90;99.90
11188;DHT22;5650;52.700;7.306;2022-09-09T08:42:08;22.00;99.90
11188;DHT22;5650;52.700;7.306;2022-09-09T08:47:42;21.90;99.90
11188;DHT22;5650;52.700;7.306;2022-09-09T08:50:19;21.80;99.90
11188;DHT22;5650;52.700;7.306;2022-09-09T08:52:53;21.60;99.90
11188;DHT22;5650;52.700;7.306;2022-09-09T08:55:26;21.50;99.90
11188;DHT22;5650;52.700;7.306;2022-09-09T08:57:56;21.20;99.90
11188;DHT22;5650;52.700;7.306;2022-09-09T09:00:34;21.20;99.90
11188;DHT22;5650;52.700;7.306;2022-09-09T09:03:18;21.10;99.90
11188;DHT22;5650;52.700;7.306;2022-09-09T09:05:55;21.00;99.90
11188;DHT22;5650;52.700;7.306;2022-09-09T09:08:27;20.90;99.90
11188;DHT22;5650;52.700;7.306;2022-09-09T09:11:04;20.90;99.90
11188;DHT22;5650;52.700;7.306;2022-09-09T09:13:40;20.80;99.90
11188;DHT22;5650;52.700;7.306;2022-09-09T09:16:19;20.80;99.90
11188;DHT22;5650;52.700;7.306;2022-09-09T09:18:50;20.80;99.90
11188;DHT22;5650;52.700;7.306;2022-09-09T09:21:21;20.70;99.90
11188;DHT22;5650;52.700;7.306;2022-09-09T09:23:56;20.60;99.90
11188;DHT22;5650;52.700;7.306;2022-09-09T09:26:27;20.70;99.90
11188;DHT22;5650;52.700;7.306;2022-09-09T09:28:56;20.80;99.90
11188;DHT22;5650;52.700;7.306;2022-09-09T09:31:37;20.90;99.90
11188;DHT22;5650;52.700;7.306;2022-09-09T09:34:08;21.00;99.90
11188;DHT22;5650;52.700;7.306;2022-09-09T09:36:40;21.10;99.90
11188;DHT22;5650;52.700;7.306;2022-09-09T09:39:08;21.30;99.90
11188;DHT22;5650;52.700;7.306;2022-09-09T09:41:42;21.40;99.90
11188;DHT22;5650;52.700;7.306;2022-09-09T09:44:23;21.40;99.90
11188;DHT22;5650;52.700;7.306;2022-09-09T09:46:51;21.30;99.90
11188;DHT22;5650;52.700;7.306;2022-09-09T09:49:20;21.20;99.90
11188;DHT22;5650;52.700;7.306;2022-09-09T09:51:47;21.10;99.90
11188;DHT22;5650;52.700;7.306;2022-09-09T09:54:18;21.10;99.90
11188;DHT22;5650;52.700;7.306;2022-09-09T09:56:49;21.20;99.90
11188;DHT22;5650;52.700;7.306;2022-09-09T09:59:21;21.20;99.90
11188;DHT22;5650;52.700;7.306;2022-09-09T10:01:49;21.30;99.90
11188;DHT22;5650;52.700;7.306;2022-09-09T10:04:22;21.20;99.90
11188;DHT22;5650;52.700;7.306;2022-09-09T10:06:50;21.10;99.90
11188;DHT22;5650;52.700;7.306;2022-09-09T10:09:23;21.00;99.90
11188;DHT22;5650;52.700;7.306;2022-09-09T10:11:56;21.00;99.90
11188;DHT22;5650;52.700;7.306;2022-09-09T10:14:28;21.10;99.90
11188;DHT22;5650;52.700;7.306;2022-09-09T10:17:07;21.10;99.90
11188;DHT22;5650;52.700;7.306;2022-09-09T10:19:41;21.20;99.90
11188;DHT22;5650;52.700;7.306;2022-09-09T10:22:25;21.20;99.90
11188;DHT22;5650;52.700;7.306;2022-09-09T10:25:29;21.30;99.90
11188;DHT22;5650;52.700;7.306;2022-09-09T10:28:33;21.30;99.90
11188;DHT22;5650;52.700;7.306;2022-09-09T10:31:17;21.40;99.90
11188;DHT22;5650;52.700;7.306;2022-09-09T10:33:55;21.40;99.90
11188;DHT22;5650;52.700;7.306;2022-09-09T10:36:38;21.30;99.90
11188;DHT22;5650;52.700;7.306;2022-09-09T10:39:22;21.30;99.90
11188;DHT22;5650;52.700;7.306;2022-09-09T10:42:03;21.40;99.90
11188;DHT22;5650;52.700;7.306;2022-09-09T10:44:48;21.40;99.90
11188;DHT22;5650;52.700;7.306;2022-09-09T10:50:47;21.60;99.90
11188;DHT22;5650;52.700;7.306;2022-09-09T10:53:32;21.70;99.90
11188;DHT22;5650;52.700;7.306;2022-09-09T10:56:16;21.80;99.90
11188;DHT22;5650;52.700;7.306;2022-09-09T10:58:48;21.80;99.90
11188;DHT22;5650;52.700;7.306;2022-09-09T11:01:20;21.70;99.90
11188;DHT22;5650;52.700;7.306;2022-09-09T11:03:53;21.80;99.90
11188;DHT22;5650;52.700;7.306;2022-09-09T11:06:24;22.00;99.90
11188;DHT22;5650;52.700;7.306;2022-09-09T11:09:00;22.10;99.90
11188;DHT22;5650;52.700;7.306;2022-09-09T11:11:29;22.10;99.90
11188;DHT22;5650;52.700;7.306;2022-09-09T11:14:05;22.10;99.90
11188;DHT22;5650;52.700;7.306;2022-09-09T11:16:40;22.10;99.90
11188;DHT22;5650;52.700;7.306;2022-09-09T11:19:14;22.20;99.90
11188;DHT22;5650;52.700;7.306;2022-09-09T11:21:45;22.30;99.90
11188;DHT22;5650;52.700;7.306;2022-09-09T11:24:19;22.40;99.90
11188;DHT22;5650;52.700;7.306;2022-09-09T11:26:52;22.50;99.90
11188;DHT22;5650;52.700;7.306;2022-09-09T11:35:33;22.30;99.90
11188;DHT22;5650;52.700;7.306;2022-09-09T11:38:16;22.20;99.90
11188;DHT22;5650;52.700;7.306;2022-09-09T11:40:58;22.20;99.90
11188;DHT22;5650;52.700;7.306;2022-09-09T11:43:29;22.20;99.90
11188;DHT22;5650;52.700;7.306;2022-09-09T11:46:00;22.20;99.90
11188;DHT22;5650;52.700;7.306;2022-09-09T11:48:36;22.20;99.90
11188;DHT22;5650;52.700;7.306;2022-09-09T11:51:11;22.20;99.90
11188;DHT22;5650;52.700;7.306;2022-09-09T11:53:49;22.30;99.90
11188;DHT22;5650;52.700;7.306;2022-09-09T11:56:33;22.20;99.90
11188;DHT22;5650;52.700;7.306;2022-09-09T11:59:05;22.10;99.90
11188;DHT22;5650;52.700;7.306;2022-09-09T12:01:42;22.10;99.90
11188;DHT22;5650;52.700;7.306;2022-09-09T12:04:26;22.10;99.90
11188;DHT22;5650;52.700;7.306;2022-09-09T12:07:04;22.20;99.90
11188;DHT22;5650;52.700;7.306;2022-09-09T12:09:45;22.30;99.90
11188;DHT22;5650;52.700;7.306;2022-09-09T12:12:27;22.40;99.90
11188;DHT22;5650;52.700;7.306;2022-09-09T12:15:00;22.40;99.90
11188;DHT22;5650;52.700;7.306;2022-09-09T12:17:30;22.40;99.90
11188;DHT22;5650;52.700;7.306;2022-09-09T12:20:13;22.40;99.90
11188;DHT22;5650;52.700;7.306;2022-09-09T12:25:48;22.60;99.90
11188;DHT22;5650;52.700;7.306;2022-09-09T12:28:19;22.60;99.90
11188;DHT22;5650;52.700;7.306;2022-09-09T12:30:55;22.60;99.90
11188;DHT22;5650;52.700;7.306;2022-09-09T12:33:23;22.70;99.90
11188;DHT22;5650;52.700;7.306;2022-09-09T12:35:55;22.90;99.90
11188;DHT22;5650;52.700;7.306;2022-09-09T12:38:26;23.00;99.90
11188;DHT22;5650;52.700;7.306;2022-09-09T12:40:57;23.10;99.60
11188;DHT22;5650;52.700;7.306;2022-09-09T12:43:27;23.10;98.80
11188;DHT22;5650;52.700;7.306;2022-09-09T12:45:57;23.10;98.80
11188;DHT22;5650;52.700;7.306;2022-09-09T12:48:31;23.10;99.00
11188;DHT22;5650;52.700;7.306;2022-09-09T12:50:59;23.00;98.60
11188;DHT22;5650;52.700;7.306;2022-09-09T12:53:29;23.00;98.80
11188;DHT22;5650;52.700;7.306;2022-09-09T12:56:00;22.90;98.90
11188;DHT22;5650;52.700;7.306;2022-09-09T12:58:31;22.90;98.90
11188;DHT22;5650;52.700;7.306;2022-09-09T13:01:05;22.90;99.00
11188;DHT22;5650;52.700;7.306;2022-09-09T13:03:33;22.80;99.10
11188;DHT22;5650;52.700;7.306;2022-09-09T13:06:11;22.70;99.20
11188;DHT22;5650;52.700;7.306;2022-09-09T13:08:39;22.60;99.30
11188;DHT22;5650;52.700;7.306;2022-09-09T13:11:11;22.50;99.60
11188;DHT22;5650;52.700;7.306;2022-09-09T13:13:43;22.50;99.60
11188;DHT22;5650;52.700;7.306;2022-09-09T13:16:22;22.40;99.70
11188;DHT22;5650;52.700;7.306;2022-09-09T13:18:50;22.40;99.80
11188;DHT22;5650;52.700;7.306;2022-09-09T13:21:18;22.40;99.90
11188;DHT22;5650;52.700;7.306;2022-09-09T13:23:51;22.50;99.90
11188;DHT22;5650;52.700;7.306;2022-09-09T13:26:23;22.50;99.90
11188;DHT22;5650;52.700;7.306;2022-09-09T13:28:53;22.30;99.80
11188;DHT22;5650;52.700;7.306;2022-09-09T13:31:23;22.20;99.90
11188;DHT22;5650;52.700;7.306;2022-09-09T13:33:52;22.20;99.90
11188;DHT22;5650;52.700;7.306;2022-09-09T13:39:51;22.30;99.90
11188;DHT22;5650;52.700;7.306;2022-09-09T13:42:26;22.40;99.90
11188;DHT22;5650;52.700;7.306;2022-09-09T13:44:58;22.30;99.90
11188;DHT22;5650;52.700;7.306;2022-09-09T13:47:34;22.30;99.90
11188;DHT22;5650;52.700;7.306;2022-09-09T13:50:18;22.30;99.90
11188;DHT22;5650;52.700;7.306;2022-09-09T13:52:46;22.30;99.90
11188;DHT22;5650;52.700;7.306;2022-09-09T13:55:22;22.30;99.90
11188;DHT22;5650;52.700;7.306;2022-09-09T13:57:53;22.40;99.90
11188;DHT22;5650;52.700;7.306;2022-09-09T14:00:22;22.40;99.50
11188;DHT22;5650;52.700;7.306;2022-09-09T14:02:50;22.50;99.50
11188;DHT22;5650;52.700;7.306;2022-09-09T14:05:18;22.50;99.00
11188;DHT22;5650;52.700;7.306;2022-09-09T14:07:46;22.40;99.10
11188;DHT22;5650;52.700;7.306;2022-09-09T14:10:13;22.30;99.10
11188;DHT22;5650;52.700;7.306;2022-09-09T14:12:40;22.30;99.30
11188;DHT22;5650;52.700;7.306;2022-09-09T14:15:13;22.10;99.60
11188;DHT22;5650;52.700;7.306;2022-09-09T14:17:42;22.20;99.90
11188;DHT22;5650;52.700;7.306;2022-09-09T14:20:11;22.20;99.90
11188;DHT22;5650;52.700;7.306;2022-09-09T14:22:41;22.20;99.90
11188;DHT22;5650;52.700;7.306;2022-09-09T14:25:09;22.20;99.90
11188;DHT22;5650;52.700;7.306;2022-09-09T14:27:40;22.10;99.90
11188;DHT22;5650;52.700;7.306;2022-09-09T14:30:10;22.10;99.90
11188;DHT22;5650;52.700;7.306;2022-09-09T14:32:37;21.90;99.90
11188;DHT22;5650;52.700;7.306;2022-09-09T14:35:12;21.60;99.90
11188;DHT22;5650;52.700;7.306;2022-09-09T14:37:39;21.30;99.90
11188;DHT22;5650;52.700;7.306;2022-09-09T14:40:06;21.00;99.90
11188;DHT22;5650;52.700;7.306;2022-09-09T14:42:34;20.70;99.90
11188;DHT22;5650;52.700;7.306;2022-09-09T14:45:12;20.50;99.90
11188;DHT22;5650;52.700;7.306;2022-09-09T14:47:46;20.30;99.90
11188;DHT22;5650;52.700;7.306;2022-09-09T14:50:18;20.20;99.90
11188;DHT22;5650;52.700;7.306;2022-09-09T14:52:48;20.10;99.90
11188;DHT22;5650;52.700;7.306;2022-09-09T14:55:16;20.10;99.90
11188;DHT22;5650;52.700;7.306;2022-09-09T14:57:51;20.20;99.90
11188;DHT22;5650;52.700;7.306;2022-09-09T15:00:18;20.20;99.90
11188;DHT22;5650;52.700;7.306;2022-09-09T15:02:45;20.40;99.90
11188;DHT22;5650;52.700;7.306;2022-09-09T15:05:23;20.40;99.90
11188;DHT22;5650;52.700;7.306;2022-09-09T15:07:50;20.50;99.90
11188;DHT22;5650;52.700;7.306;2022-09-09T15:10:18;20.60;99.90
11188;DHT22;5650;52.700;7.306;2022-09-09T15:12:47;20.60;99.90
11188;DHT22;5650;52.700;7.306;2022-09-09T15:15:14;20.60;99.90
11188;DHT22;5650;52.700;7.306;2022-09-09T15:17:41;20.50;99.90
11188;DHT22;5650;52.700;7.306;2022-09-09T15:20:11;20.60;99.90
11188;DHT22;5650;52.700;7.306;2022-09-09T15:22:41;20.60;99.90
11188;DHT22;5650;52.700;7.306;2022-09-09T15:25:08;20.60;99.90
11188;DHT22;5650;52.700;7.306;2022-09-09T15:27:36;20.60;99.90
11188;DHT22;5650;52.700;7.306;2022-09-09T15:30:11;20.60;99.90
11188;DHT22;5650;52.700;7.306;2022-09-09T15:32:38;20.60;99.90
11188;DHT22;5650;52.700;7.306;2022-09-09T15:35:11;20.60;99.90
11188;DHT22;5650;52.700;7.306;2022-09-09T15:37:40;20.60;99.90
11188;DHT22;5650;52.700;7.306;2022-09-09T15:40:08;20.60;99.90
11188;DHT22;5650;52.700;7.306;2022-09-09T15:42:41;20.50;99.90
11188;DHT22;5650;52.700;7.306;2022-09-09T15:45:09;20.50;99.90
11188;DHT22;5650;52.700;7.306;2022-09-09T15:47:47;20.50;99.90
11188;DHT22;5650;52.700;7.306;2022-09-09T15:50:17;20.60;99.90
11188;DHT22;5650;52.700;7.306;2022-09-09T15:52:46;20.60;99.90
11188;DHT22;5650;52.700;7.306;2022-09-09T15:55:13;20.60;99.90
11188;DHT22;5650;52.700;7.306;2022-09-09T15:57:49;20.60;99.90
11188;DHT22;5650;52.700;7.306;2022-09-09T16:00:17;20.50;99.90
11188;DHT22;5650;52.700;7.306;2022-09-09T16:02:48;20.50;99.90
11188;DHT22;5650;52.700;7.306;2022-09-09T16:05:18;20.40;99.90
11188;DHT22;5650;52.700;7.306;2022-09-09T16:07:47;20.30;99.90
11188;DHT22;5650;52.700;7.306;2022-09-09T16:10:14;20.20;99.90
11188;DHT22;5650;52.700;7.306;2022-09-09T16:12:41;20.10;99.90
11188;DHT22;5650;52.700;7.306;2022-09-09T16:15:09;20.10;99.90
11188;DHT22;5650;52.700;7.306;2022-09-09T16:17:36;20.00;99.90
11188;DHT22;5650;52.700;7.306;2022-09-09T16:20:07;20.00;99.90
11188;DHT22;5650;52.700;7.306;2022-09-09T16:22:34;19.90;99.90
11188;DHT22;5650;52.700;7.306;2022-09-09T16:25:04;19.90;99.90
11188;DHT22;5650;52.700;7.306;2022-09-09T16:27:34;19.90;99.90
11188;DHT22;5650;52.700;7.306;2022-09-09T16:30:08;19.80;99.90
11188;DHT22;5650;52.700;7.306;2022-09-09T16:32:35;19.80;99.90
11188;DHT22;5650;52.700;7.306;2022-09-09T16:35:05;19.80;99.90